createdAt,value
2017-09-24T00:00:40.331Z,1016.54
2017-09-24T00:01:35.290Z,1016.56
2017-09-24T00:02:35.308Z,1016.52
2017-09-24T00:03:29.350Z,1016.55
2017-09-24T00:04:29.359Z,1016.53
2017-09-24T00:05:24.441Z,1016.53
2017-09-24T00:06:19.449Z,1016.52
2017-09-24T00:07:19.448Z,1016.52
2017-09-24T00:08:14.522Z,1016.53
2017-09-24T00:09:09.989Z,1016.52
2017-09-24T00:10:10.553Z,1016.48
2017-09-24T00:11:10.688Z,1016.49
2017-09-24T00:12:10.647Z,1016.48
2017-09-24T00:13:05.650Z,1016.47
2017-09-24T00:14:00.028Z,1016.46
2017-09-24T00:15:00.717Z,1016.47
2017-09-24T00:16:00.760Z,1016.49
2017-09-24T00:17:00.754Z,1016.51
2017-09-24T00:17:55.878Z,1016.43
2017-09-24T00:18:50.113Z,1016.46
2017-09-24T00:19:49.903Z,1016.45
2017-09-24T00:20:44.922Z,1016.41
2017-09-24T00:21:39.927Z,1016.46
2017-09-24T00:22:45.949Z,1016.45
2017-09-24T00:23:40.276Z,1016.41
2017-09-24T00:24:41.061Z,1016.43
2017-09-24T00:25:41.049Z,1016.43
2017-09-24T00:26:41.408Z,1016.42
2017-09-24T00:27:36.128Z,1016.44
2017-09-24T00:28:30.285Z,1016.41
2017-09-24T00:29:30.141Z,1016.41
2017-09-24T00:30:25.243Z,1016.43
2017-09-24T00:31:25.248Z,1016.40
2017-09-24T00:32:19.324Z,1016.39
2017-09-24T00:33:19.299Z,1016.40
2017-09-24T00:34:19.346Z,1016.38
2017-09-24T00:35:20.437Z,1016.44
2017-09-24T00:36:20.423Z,1016.41
2017-09-24T00:37:20.435Z,1016.39
2017-09-24T00:38:20.450Z,1016.42
2017-09-24T00:39:26.519Z,1016.41
2017-09-24T00:40:21.530Z,1016.38
2017-09-24T00:41:21.546Z,1016.42
2017-09-24T00:42:15.720Z,1016.42
2017-09-24T00:43:15.623Z,1016.44
2017-09-24T00:44:10.642Z,1016.43
2017-09-24T00:45:05.667Z,1016.45
2017-09-24T00:46:05.729Z,1016.44
2017-09-24T00:47:00.752Z,1016.41
2017-09-24T00:47:55.772Z,1016.47
2017-09-24T00:48:55.828Z,1016.44
2017-09-24T00:49:50.837Z,1016.38
2017-09-24T00:50:45.894Z,1016.43
2017-09-24T00:51:52.048Z,1016.40
2017-09-24T00:52:51.934Z,1016.37
2017-09-24T00:53:52.056Z,1016.40
2017-09-24T00:54:45.995Z,1016.43
2017-09-24T00:55:46.028Z,1016.41
2017-09-24T00:56:46.038Z,1016.42
2017-09-24T00:57:41.074Z,1016.40
2017-09-24T00:58:35.120Z,1016.44
2017-09-24T00:59:35.146Z,1016.42
2017-09-24T01:00:30.157Z,1016.39
2017-09-24T01:01:25.221Z,1016.37
2017-09-24T01:02:26.243Z,1016.35
2017-09-24T01:03:27.263Z,1016.37
2017-09-24T01:04:27.672Z,1016.34
2017-09-24T01:05:28.305Z,1016.32
2017-09-24T01:06:29.341Z,1016.32
2017-09-24T01:07:23.401Z,1016.32
2017-09-24T01:08:24.435Z,1016.35
2017-09-24T01:09:24.510Z,1016.34
2017-09-24T01:10:19.456Z,1016.38
2017-09-24T01:11:19.522Z,1016.36
2017-09-24T01:12:13.558Z,1016.36
2017-09-24T01:13:13.556Z,1016.33
2017-09-24T01:14:08.671Z,1016.37
2017-09-24T01:15:03.648Z,1016.35
2017-09-24T01:16:03.648Z,1016.35
2017-09-24T01:16:58.753Z,1016.34
2017-09-24T01:17:53.745Z,1016.32
2017-09-24T01:18:54.177Z,1016.37
2017-09-24T01:19:48.825Z,1016.33
2017-09-24T01:20:43.845Z,1016.33
2017-09-24T01:21:44.853Z,1016.32
2017-09-24T01:22:44.878Z,1016.31
2017-09-24T01:23:45.384Z,1016.32
2017-09-24T01:24:39.950Z,1016.30
2017-09-24T01:25:33.967Z,1016.33
2017-09-24T01:26:34.060Z,1016.31
2017-09-24T01:27:29.048Z,1016.35
2017-09-24T01:28:29.111Z,1016.33
2017-09-24T01:29:29.130Z,1016.33
2017-09-24T01:30:29.136Z,1016.31
2017-09-24T01:31:23.164Z,1016.34
2017-09-24T01:32:24.236Z,1016.36
2017-09-24T01:33:25.252Z,1016.40
2017-09-24T01:34:20.263Z,1016.36
2017-09-24T01:35:14.331Z,1016.34
2017-09-24T01:36:14.340Z,1016.33
2017-09-24T01:37:09.404Z,1016.35
2017-09-24T01:38:09.432Z,1016.34
2017-09-24T01:39:03.822Z,1016.32
2017-09-24T01:40:03.471Z,1016.34
2017-09-24T01:40:58.505Z,1016.32
2017-09-24T01:41:53.522Z,1016.30
2017-09-24T01:42:53.536Z,1016.32
2017-09-24T01:43:48.877Z,1016.35
2017-09-24T01:44:43.633Z,1016.34
2017-09-24T01:45:43.648Z,1016.33
2017-09-24T01:46:38.712Z,1016.32
2017-09-24T01:47:38.717Z,1016.33
2017-09-24T01:48:39.044Z,1016.34
2017-09-24T01:49:38.771Z,1016.34
2017-09-24T01:50:32.823Z,1016.35
2017-09-24T01:51:33.838Z,1016.30
2017-09-24T01:52:33.865Z,1016.37
2017-09-24T01:53:29.152Z,1016.32
2017-09-24T01:54:29.350Z,1016.33
2017-09-24T01:55:23.129Z,1016.35
2017-09-24T01:56:24.207Z,1016.34
2017-09-24T01:57:24.038Z,1016.36
2017-09-24T01:58:19.219Z,1016.32
2017-09-24T01:59:19.130Z,1016.36
2017-09-24T02:00:13.154Z,1016.39
2017-09-24T02:01:14.244Z,1016.36
2017-09-24T02:02:15.232Z,1016.34
2017-09-24T02:03:10.240Z,1016.35
2017-09-24T02:04:10.239Z,1016.31
2017-09-24T02:05:10.308Z,1016.33
2017-09-24T02:06:04.330Z,1016.30
2017-09-24T02:07:04.346Z,1016.33
2017-09-24T02:08:04.355Z,1016.35
2017-09-24T02:09:04.867Z,1016.35
2017-09-24T02:10:04.464Z,1016.30
2017-09-24T02:11:04.476Z,1016.32
2017-09-24T02:12:05.550Z,1016.28
2017-09-24T02:13:06.989Z,1016.27
2017-09-24T02:14:06.783Z,1016.30
2017-09-24T02:15:06.615Z,1016.27
2017-09-24T02:16:00.644Z,1016.27
2017-09-24T02:17:00.648Z,1016.26
2017-09-24T02:17:55.748Z,1016.32
2017-09-24T02:18:55.749Z,1016.30
2017-09-24T02:19:55.962Z,1016.25
2017-09-24T02:20:55.784Z,1016.31
2017-09-24T02:21:49.859Z,1016.28
2017-09-24T02:22:50.870Z,1016.29
2017-09-24T02:23:51.177Z,1016.26
2017-09-24T02:24:45.933Z,1016.30
2017-09-24T02:25:45.951Z,1016.29
2017-09-24T02:26:39.961Z,1016.25
2017-09-24T02:27:41.016Z,1016.32
2017-09-24T02:28:41.038Z,1016.28
2017-09-24T02:29:36.065Z,1016.27
2017-09-24T02:30:36.115Z,1016.25
2017-09-24T02:31:36.136Z,1016.28
2017-09-24T02:32:36.150Z,1016.25
2017-09-24T02:33:30.386Z,1016.26
2017-09-24T02:34:30.255Z,1016.27
2017-09-24T02:35:25.330Z,1016.25
2017-09-24T02:36:31.301Z,1016.23
2017-09-24T02:37:26.341Z,1016.28
2017-09-24T02:38:20.612Z,1016.27
2017-09-24T02:39:20.376Z,1016.31
2017-09-24T02:40:20.777Z,1016.32
2017-09-24T02:41:15.463Z,1016.28
2017-09-24T02:42:09.463Z,1016.29
2017-09-24T02:43:09.529Z,1016.28
2017-09-24T02:44:05.025Z,1016.27
2017-09-24T02:44:59.552Z,1016.25
2017-09-24T02:46:00.611Z,1016.26
2017-09-24T02:47:00.633Z,1016.28
2017-09-24T02:48:00.872Z,1016.29
2017-09-24T02:48:55.958Z,1016.26
2017-09-24T02:49:49.729Z,1016.25
2017-09-24T02:50:49.740Z,1016.27
2017-09-24T02:51:44.810Z,1016.28
2017-09-24T02:52:50.841Z,1016.30
2017-09-24T02:53:46.283Z,1016.26
2017-09-24T02:54:39.900Z,1016.23
2017-09-24T02:55:39.928Z,1016.26
2017-09-24T02:56:39.950Z,1016.24
2017-09-24T02:57:34.949Z,1016.25
2017-09-24T02:58:29.220Z,1016.24
2017-09-24T02:59:29.493Z,1016.22
2017-09-24T03:00:24.055Z,1016.26
2017-09-24T03:01:19.120Z,1016.26
2017-09-24T03:02:25.149Z,1016.25
2017-09-24T03:03:25.149Z,1016.26
2017-09-24T03:04:25.468Z,1016.27
2017-09-24T03:05:19.221Z,1016.26
2017-09-24T03:06:20.480Z,1016.24
2017-09-24T03:07:15.296Z,1016.28
2017-09-24T03:08:09.297Z,1016.24
2017-09-24T03:09:09.700Z,1016.23
2017-09-24T03:10:04.534Z,1016.26
2017-09-24T03:11:10.425Z,1016.23
2017-09-24T03:12:05.449Z,1016.24
2017-09-24T03:12:59.472Z,1016.21
2017-09-24T03:14:00.726Z,1016.20
2017-09-24T03:14:55.563Z,1016.23
2017-09-24T03:15:49.562Z,1016.21
2017-09-24T03:16:49.623Z,1016.21
2017-09-24T03:17:44.646Z,1016.17
2017-09-24T03:18:44.660Z,1016.18
2017-09-24T03:19:38.720Z,1016.18
2017-09-24T03:20:38.745Z,1016.18
2017-09-24T03:21:33.794Z,1016.15
2017-09-24T03:22:28.817Z,1016.19
2017-09-24T03:23:29.814Z,1016.17
2017-09-24T03:24:30.866Z,1016.19
2017-09-24T03:25:26.215Z,1016.17
2017-09-24T03:26:19.947Z,1016.15
2017-09-24T03:27:20.044Z,1016.15
2017-09-24T03:28:15.343Z,1016.14
2017-09-24T03:29:15.032Z,1016.12
2017-09-24T03:30:15.069Z,1016.15
2017-09-24T03:31:21.056Z,1016.08
2017-09-24T03:32:16.119Z,1016.12
2017-09-24T03:33:16.149Z,1016.10
2017-09-24T03:34:11.165Z,1016.11
2017-09-24T03:35:11.218Z,1016.08
2017-09-24T03:36:11.238Z,1016.05
2017-09-24T03:37:11.657Z,1016.06
2017-09-24T03:38:05.305Z,1016.05
2017-09-24T03:39:05.549Z,1016.07
2017-09-24T03:40:00.381Z,1016.06
2017-09-24T03:41:00.410Z,1016.06
2017-09-24T03:42:00.445Z,1016.02
2017-09-24T03:43:06.510Z,1016.02
2017-09-24T03:44:01.468Z,1016.04
2017-09-24T03:45:01.976Z,1016.00
2017-09-24T03:45:56.554Z,1016.02
2017-09-24T03:46:51.556Z,1016.02
2017-09-24T03:47:51.626Z,1016.03
2017-09-24T03:48:47.002Z,1016.01
2017-09-24T03:49:46.658Z,1015.97
2017-09-24T03:50:46.721Z,1015.96
2017-09-24T03:51:46.737Z,1015.94
2017-09-24T03:52:40.756Z,1015.94
2017-09-24T03:53:40.786Z,1015.94
2017-09-24T03:54:35.832Z,1015.94
2017-09-24T03:55:31.109Z,1015.93
2017-09-24T03:56:36.869Z,1015.92
2017-09-24T03:57:30.928Z,1015.95
2017-09-24T03:58:30.973Z,1015.95
2017-09-24T03:59:25.958Z,1015.95
2017-09-24T04:00:26.025Z,1015.94
2017-09-24T04:01:20.045Z,1015.94
2017-09-24T04:02:20.140Z,1015.93
2017-09-24T04:03:15.126Z,1015.92
2017-09-24T04:04:10.099Z,1015.89
2017-09-24T04:05:11.167Z,1015.88
2017-09-24T04:06:12.217Z,1015.88
2017-09-24T04:07:12.656Z,1015.93
2017-09-24T04:08:13.260Z,1015.95
2017-09-24T04:09:14.292Z,1015.96
2017-09-24T04:10:08.330Z,1016.00
2017-09-24T04:11:08.389Z,1015.97
2017-09-24T04:12:03.419Z,1015.98
2017-09-24T04:12:58.432Z,1016.00
2017-09-24T04:14:04.449Z,1016.00
2017-09-24T04:14:58.462Z,1015.97
2017-09-24T04:15:58.541Z,1015.98
2017-09-24T04:16:53.543Z,1015.99
2017-09-24T04:17:53.575Z,1015.98
2017-09-24T04:18:48.059Z,1016.00
2017-09-24T04:19:47.710Z,1015.97
2017-09-24T04:20:42.648Z,1015.98
2017-09-24T04:21:37.786Z,1015.98
2017-09-24T04:22:37.745Z,1015.98
2017-09-24T04:23:33.055Z,1015.98
2017-09-24T04:24:28.074Z,1015.96
2017-09-24T04:25:27.840Z,1015.99
2017-09-24T04:26:22.856Z,1016.03
2017-09-24T04:27:17.860Z,1016.02
2017-09-24T04:28:18.939Z,1016.07
2017-09-24T04:29:18.963Z,1016.05
2017-09-24T04:30:19.005Z,1016.05
2017-09-24T04:31:14.031Z,1016.05
2017-09-24T04:32:08.364Z,1016.09
2017-09-24T04:33:08.103Z,1016.10
2017-09-24T04:34:03.400Z,1016.10
2017-09-24T04:35:03.249Z,1016.09
2017-09-24T04:35:57.203Z,1016.13
2017-09-24T04:36:57.245Z,1016.13
2017-09-24T04:37:52.256Z,1016.14
2017-09-24T04:38:47.676Z,1016.18
2017-09-24T04:39:47.316Z,1016.18
2017-09-24T04:40:42.417Z,1016.14
2017-09-24T04:41:37.604Z,1016.17
2017-09-24T04:42:43.442Z,1016.16
2017-09-24T04:43:37.449Z,1016.20
2017-09-24T04:44:37.523Z,1016.24
2017-09-24T04:45:32.534Z,1016.19
2017-09-24T04:46:32.547Z,1016.18
2017-09-24T04:47:26.563Z,1016.16
2017-09-24T04:48:26.697Z,1016.15
2017-09-24T04:49:21.655Z,1016.15
2017-09-24T04:50:16.662Z,1016.15
2017-09-24T04:51:16.725Z,1016.12
2017-09-24T04:52:11.748Z,1016.12
2017-09-24T04:53:06.763Z,1016.12
2017-09-24T04:54:07.033Z,1016.10
2017-09-24T04:55:01.960Z,1016.08
2017-09-24T04:55:56.845Z,1016.12
2017-09-24T04:57:03.316Z,1016.14
2017-09-24T04:57:57.281Z,1016.17
2017-09-24T04:58:57.195Z,1016.14
2017-09-24T04:59:52.265Z,1016.17
2017-09-24T05:00:52.037Z,1016.20
2017-09-24T05:01:52.056Z,1016.19
2017-09-24T05:02:58.137Z,1016.20
2017-09-24T05:03:58.139Z,1016.21
2017-09-24T05:04:59.342Z,1016.20
2017-09-24T05:05:53.158Z,1016.25
2017-09-24T05:06:53.245Z,1016.28
2017-09-24T05:07:48.248Z,1016.26
2017-09-24T05:08:43.256Z,1016.34
2017-09-24T05:09:49.302Z,1016.29
2017-09-24T05:10:43.363Z,1016.30
2017-09-24T05:11:44.359Z,1016.31
2017-09-24T05:12:44.559Z,1016.34
2017-09-24T05:13:44.460Z,1016.34
2017-09-24T05:14:44.473Z,1016.36
2017-09-24T05:15:44.516Z,1016.35
2017-09-24T05:16:44.536Z,1016.39
2017-09-24T05:17:44.661Z,1016.38
2017-09-24T05:18:44.563Z,1016.42
2017-09-24T05:19:44.638Z,1016.41
2017-09-24T05:20:44.658Z,1016.43
2017-09-24T05:21:44.976Z,1016.44
2017-09-24T05:22:44.741Z,1016.42
2017-09-24T05:23:44.753Z,1016.45
2017-09-24T05:24:44.751Z,1016.43
2017-09-24T05:25:33.812Z,1016.46
2017-09-24T05:26:27.889Z,1016.44
2017-09-24T05:27:22.962Z,1016.44
2017-09-24T05:28:11.949Z,1016.41
2017-09-24T05:29:05.961Z,1016.44
2017-09-24T05:30:06.008Z,1016.45
2017-09-24T05:31:06.039Z,1016.49
2017-09-24T05:32:06.052Z,1016.47
2017-09-24T05:33:06.280Z,1016.49
2017-09-24T05:34:06.132Z,1016.50
2017-09-24T05:34:55.156Z,1016.44
2017-09-24T05:35:43.228Z,1016.47
2017-09-24T05:36:31.241Z,1016.40
2017-09-24T05:37:19.293Z,1016.39
2017-09-24T05:38:08.315Z,1016.40
2017-09-24T05:38:56.361Z,1016.39
2017-09-24T05:39:50.417Z,1016.40
2017-09-24T05:40:38.449Z,1016.38
2017-09-24T05:41:38.462Z,1016.38
2017-09-24T05:42:26.538Z,1016.35
2017-09-24T05:43:14.626Z,1016.39
2017-09-24T05:44:14.616Z,1016.40
2017-09-24T05:45:02.880Z,1016.39
2017-09-24T05:45:51.660Z,1016.35
2017-09-24T05:46:51.721Z,1016.37
2017-09-24T05:47:45.861Z,1016.35
2017-09-24T05:48:39.778Z,1016.38
2017-09-24T05:49:28.832Z,1016.35
2017-09-24T05:50:28.848Z,1016.37
2017-09-24T05:51:22.920Z,1016.36
2017-09-24T05:52:10.937Z,1016.41
2017-09-24T05:53:10.979Z,1016.40
2017-09-24T05:54:06.036Z,1016.41
2017-09-24T05:55:06.038Z,1016.42
2017-09-24T05:56:06.053Z,1016.45
2017-09-24T05:57:06.074Z,1016.43
2017-09-24T05:58:06.133Z,1016.44
2017-09-24T05:59:06.239Z,1016.49
2017-09-24T06:00:00.211Z,1016.49
2017-09-24T06:01:00.678Z,1016.44
2017-09-24T06:01:55.254Z,1016.49
2017-09-24T06:02:50.318Z,1016.49
2017-09-24T06:03:44.341Z,1016.47
2017-09-24T06:04:44.624Z,1016.47
2017-09-24T06:05:39.370Z,1016.47
2017-09-24T06:06:34.426Z,1016.47
2017-09-24T06:07:34.437Z,1016.48
2017-09-24T06:08:29.441Z,1016.46
2017-09-24T06:09:24.532Z,1016.45
2017-09-24T06:10:18.533Z,1016.48
2017-09-24T06:11:19.980Z,1016.48
2017-09-24T06:12:14.643Z,1016.48
2017-09-24T06:13:14.639Z,1016.51
2017-09-24T06:14:14.700Z,1016.54
2017-09-24T06:15:14.719Z,1016.52
2017-09-24T06:16:14.743Z,1016.52
2017-09-24T06:17:14.834Z,1016.58
2017-09-24T06:18:14.808Z,1016.53
2017-09-24T06:19:14.952Z,1016.53
2017-09-24T06:20:14.909Z,1016.59
2017-09-24T06:21:14.949Z,1016.57
2017-09-24T06:22:14.949Z,1016.58
2017-09-24T06:23:14.971Z,1016.58
2017-09-24T06:24:15.036Z,1016.58
2017-09-24T06:25:15.049Z,1016.63
2017-09-24T06:26:15.053Z,1016.60
2017-09-24T06:27:15.121Z,1016.62
2017-09-24T06:28:15.300Z,1016.64
2017-09-24T06:29:15.412Z,1016.66
2017-09-24T06:30:15.222Z,1016.62
2017-09-24T06:31:15.242Z,1016.62
2017-09-24T06:32:15.257Z,1016.61
2017-09-24T06:33:09.334Z,1016.62
2017-09-24T06:34:09.339Z,1016.65
2017-09-24T06:35:04.618Z,1016.65
2017-09-24T06:35:59.792Z,1016.65
2017-09-24T06:36:53.438Z,1016.68
2017-09-24T06:37:53.449Z,1016.71
2017-09-24T06:38:48.512Z,1016.73
2017-09-24T06:39:43.550Z,1016.78
2017-09-24T06:40:44.564Z,1016.77
2017-09-24T06:41:44.635Z,1016.76
2017-09-24T06:42:39.643Z,1016.77
2017-09-24T06:43:34.659Z,1016.79
2017-09-24T06:44:34.745Z,1016.79
2017-09-24T06:45:28.754Z,1016.78
2017-09-24T06:46:28.824Z,1016.78
2017-09-24T06:47:28.831Z,1016.85
2017-09-24T06:48:29.463Z,1016.86
2017-09-24T06:49:28.905Z,1016.90
2017-09-24T06:50:22.933Z,1016.88
2017-09-24T06:51:22.953Z,1016.90
2017-09-24T06:52:18.037Z,1016.95
2017-09-24T06:53:13.034Z,1016.89
2017-09-24T06:54:02.066Z,1016.90
2017-09-24T06:54:57.466Z,1016.88
2017-09-24T06:55:51.144Z,1016.89
2017-09-24T06:56:40.212Z,1016.87
2017-09-24T06:57:34.275Z,1016.83
2017-09-24T06:58:29.882Z,1016.86
2017-09-24T06:59:24.320Z,1016.89
2017-09-24T07:00:19.673Z,1016.87
2017-09-24T07:01:13.358Z,1016.87
2017-09-24T07:02:07.444Z,1016.86
2017-09-24T07:02:56.463Z,1016.87
2017-09-24T07:03:51.512Z,1016.92
2017-09-24T07:04:51.535Z,1016.96
2017-09-24T07:05:51.556Z,1016.97
2017-09-24T07:06:51.615Z,1016.97
2017-09-24T07:07:51.649Z,1016.95
2017-09-24T07:08:51.727Z,1016.95
2017-09-24T07:09:51.806Z,1016.97
2017-09-24T07:10:51.825Z,1016.98
2017-09-24T07:11:51.895Z,1017.01
2017-09-24T07:12:51.775Z,1017.04
2017-09-24T07:13:52.002Z,1017.04
2017-09-24T07:14:40.898Z,1017.00
2017-09-24T07:15:40.931Z,1016.99
2017-09-24T07:16:41.946Z,1016.98
2017-09-24T07:17:42.963Z,1016.99
2017-09-24T07:18:43.095Z,1016.97
2017-09-24T07:19:38.047Z,1016.98
2017-09-24T07:20:38.121Z,1017.03
2017-09-24T07:21:33.133Z,1017.05
2017-09-24T07:22:28.164Z,1017.02
2017-09-24T07:23:22.211Z,1017.06
2017-09-24T07:24:23.244Z,1017.05
2017-09-24T07:25:23.519Z,1017.08
2017-09-24T07:26:18.268Z,1017.09
2017-09-24T07:27:18.407Z,1017.08
2017-09-24T07:28:18.381Z,1017.13
2017-09-24T07:29:18.370Z,1017.16
2017-09-24T07:30:12.741Z,1017.16
2017-09-24T07:31:12.467Z,1017.18
2017-09-24T07:32:01.540Z,1017.21
2017-09-24T07:32:50.555Z,1017.18
2017-09-24T07:33:38.630Z,1017.20
2017-09-24T07:34:26.656Z,1017.19
2017-09-24T07:35:27.720Z,1017.20
2017-09-24T07:36:27.732Z,1017.19
2017-09-24T07:37:27.753Z,1017.17
2017-09-24T07:38:21.805Z,1017.13
2017-09-24T07:39:21.847Z,1017.15
2017-09-24T07:40:16.857Z,1017.13
2017-09-24T07:41:12.337Z,1017.13
2017-09-24T07:42:05.957Z,1017.10
2017-09-24T07:43:06.152Z,1017.10
2017-09-24T07:43:54.112Z,1017.11
2017-09-24T07:44:48.113Z,1017.08
2017-09-24T07:45:37.136Z,1017.13
2017-09-24T07:46:31.358Z,1017.17
2017-09-24T07:47:26.231Z,1017.19
2017-09-24T07:48:26.716Z,1017.22
2017-09-24T07:49:21.328Z,1017.23
2017-09-24T07:50:15.341Z,1017.21
2017-09-24T07:51:15.351Z,1017.24
2017-09-24T07:52:09.744Z,1017.23
2017-09-24T07:53:03.608Z,1017.21
2017-09-24T07:53:57.460Z,1017.20
2017-09-24T07:54:45.540Z,1017.22
2017-09-24T07:55:34.804Z,1017.25
2017-09-24T07:56:29.624Z,1017.25
2017-09-24T07:57:29.652Z,1017.31
2017-09-24T07:58:24.712Z,1017.28
2017-09-24T07:59:12.743Z,1017.30
2017-09-24T08:00:06.885Z,1017.30
2017-09-24T08:01:06.814Z,1017.28
2017-09-24T08:02:01.853Z,1017.27
2017-09-24T08:02:57.226Z,1017.26
2017-09-24T08:03:50.951Z,1017.29
2017-09-24T08:04:39.314Z,1017.25
2017-09-24T08:05:27.249Z,1017.23
2017-09-24T08:06:28.071Z,1017.24
2017-09-24T08:07:28.077Z,1017.30
2017-09-24T08:08:17.156Z,1017.29
2017-09-24T08:09:11.431Z,1017.28
2017-09-24T08:10:00.251Z,1017.28
2017-09-24T08:10:55.266Z,1017.32
2017-09-24T08:11:49.354Z,1017.35
2017-09-24T08:12:38.625Z,1017.33
2017-09-24T08:13:26.623Z,1017.35
2017-09-24T08:14:14.771Z,1017.32
2017-09-24T08:15:02.701Z,1017.32
2017-09-24T08:15:51.736Z,1017.34
2017-09-24T08:16:46.977Z,1017.32
2017-09-24T08:17:47.856Z,1017.31
2017-09-24T08:18:35.863Z,1017.28
2017-09-24T08:19:24.742Z,1017.31
2017-09-24T08:20:19.052Z,1017.32
2017-09-24T08:21:12.827Z,1017.31
2017-09-24T08:22:00.859Z,1017.30
2017-09-24T08:22:54.919Z,1017.29
2017-09-24T08:23:43.948Z,1017.28
2017-09-24T08:24:37.970Z,1017.27
2017-09-24T08:25:39.034Z,1017.30
2017-09-24T08:26:33.280Z,1017.30
2017-09-24T08:27:27.140Z,1017.29
2017-09-24T08:28:27.506Z,1017.33
2017-09-24T08:29:21.400Z,1017.33
2017-09-24T08:30:21.461Z,1017.33
2017-09-24T08:31:16.512Z,1017.31
2017-09-24T08:32:10.633Z,1017.31
2017-09-24T08:33:10.644Z,1017.35
2017-09-24T08:34:05.617Z,1017.38
2017-09-24T08:35:00.698Z,1017.30
2017-09-24T08:36:00.800Z,1017.36
2017-09-24T08:36:55.942Z,1017.39
2017-09-24T08:37:49.796Z,1017.41
2017-09-24T08:38:49.846Z,1017.41
2017-09-24T08:39:38.974Z,1017.47
2017-09-24T08:40:32.940Z,1017.44
2017-09-24T08:41:38.995Z,1017.39
2017-09-24T08:42:33.987Z,1017.42
2017-09-24T08:43:28.274Z,1017.40
2017-09-24T08:44:22.856Z,1017.41
2017-09-24T08:45:23.207Z,1017.38
2017-09-24T08:46:23.314Z,1017.43
2017-09-24T08:47:23.207Z,1017.42
2017-09-24T08:48:18.274Z,1017.42
2017-09-24T08:49:18.293Z,1017.38
2017-09-24T08:50:13.361Z,1017.44
2017-09-24T08:51:07.377Z,1017.43
2017-09-24T08:52:02.459Z,1017.45
2017-09-24T08:53:02.553Z,1017.46
2017-09-24T08:54:02.625Z,1017.44
2017-09-24T08:55:02.556Z,1017.41
2017-09-24T08:56:02.660Z,1017.44
2017-09-24T08:57:02.632Z,1017.41
2017-09-24T08:57:50.816Z,1017.43
2017-09-24T08:58:44.783Z,1017.43
2017-09-24T08:59:38.927Z,1017.33
2017-09-24T09:00:32.836Z,1017.36
2017-09-24T09:01:20.944Z,1017.37
2017-09-24T09:02:10.032Z,1017.37
2017-09-24T09:03:04.046Z,1017.30
2017-09-24T09:03:53.103Z,1017.31
2017-09-24T09:04:42.112Z,1017.29
2017-09-24T09:05:36.205Z,1017.34
2017-09-24T09:06:36.319Z,1017.36
2017-09-24T09:07:30.299Z,1017.35
2017-09-24T09:08:30.456Z,1017.32
2017-09-24T09:09:24.056Z,1017.30
2017-09-24T09:10:19.319Z,1017.34
2017-09-24T09:11:20.138Z,1017.28
2017-09-24T09:12:15.588Z,1017.28
2017-09-24T09:13:09.228Z,1017.29
2017-09-24T09:14:03.309Z,1017.30
2017-09-24T09:14:58.284Z,1017.32
2017-09-24T09:15:47.360Z,1017.31
2017-09-24T09:16:41.379Z,1017.35
2017-09-24T09:17:35.729Z,1017.39
2017-09-24T09:18:29.987Z,1017.39
2017-09-24T09:19:30.544Z,1017.42
2017-09-24T09:20:30.571Z,1017.44
2017-09-24T09:21:25.804Z,1017.45
2017-09-24T09:22:14.823Z,1017.44
2017-09-24T09:23:09.765Z,1017.44
2017-09-24T09:24:09.758Z,1017.46
2017-09-24T09:25:04.112Z,1017.44
2017-09-24T09:26:04.939Z,1017.47
2017-09-24T09:26:59.280Z,1017.48
2017-09-24T09:27:48.304Z,1017.49
2017-09-24T09:28:43.072Z,1017.49
2017-09-24T09:29:31.466Z,1017.53
2017-09-24T09:30:25.136Z,1017.51
2017-09-24T09:31:14.153Z,1017.52
2017-09-24T09:32:03.559Z,1017.54
2017-09-24T09:33:03.246Z,1017.55
2017-09-24T09:33:57.322Z,1017.54
2017-09-24T09:34:52.364Z,1017.46
2017-09-24T09:35:47.468Z,1017.44
2017-09-24T09:36:35.453Z,1017.45
2017-09-24T09:37:30.616Z,1017.42
2017-09-24T09:38:25.648Z,1017.39
2017-09-24T09:39:20.000Z,1017.39
2017-09-24T09:40:14.842Z,1017.34
2017-09-24T09:41:08.721Z,1017.34
2017-09-24T09:42:02.978Z,1017.33
2017-09-24T09:42:58.049Z,1017.29
2017-09-24T09:43:52.142Z,1017.31
2017-09-24T09:44:45.877Z,1017.31
2017-09-24T09:45:41.281Z,1017.35
2017-09-24T09:46:30.020Z,1017.34
2017-09-24T09:47:18.308Z,1017.31
2017-09-24T09:48:12.498Z,1017.35
2017-09-24T09:49:07.169Z,1017.31
2017-09-24T09:50:07.562Z,1017.31
2017-09-24T09:51:07.625Z,1017.31
2017-09-24T09:52:01.692Z,1017.26
2017-09-24T09:52:55.763Z,1017.25
2017-09-24T09:53:50.776Z,1017.25
2017-09-24T09:54:39.818Z,1017.25
2017-09-24T09:55:28.626Z,1017.26
2017-09-24T09:56:16.962Z,1017.18
2017-09-24T09:57:10.920Z,1017.19
2017-09-24T09:58:05.075Z,1017.16
2017-09-24T09:58:59.003Z,1017.18
2017-09-24T09:59:53.085Z,1017.11
2017-09-24T10:00:48.164Z,1017.13
2017-09-24T10:01:49.202Z,1017.06
2017-09-24T10:02:49.248Z,1017.10
2017-09-24T10:03:43.335Z,1017.12
2017-09-24T10:04:43.354Z,1017.12
2017-09-24T10:05:37.371Z,1017.17
2017-09-24T10:06:31.470Z,1017.19
2017-09-24T10:07:19.521Z,1017.16
2017-09-24T10:08:07.556Z,1017.13
2017-09-24T10:09:07.639Z,1017.06
2017-09-24T10:10:01.653Z,1017.05
2017-09-24T10:10:56.732Z,1017.06
2017-09-24T10:11:50.847Z,1017.07
2017-09-24T10:12:44.833Z,1017.08
2017-09-24T10:13:39.899Z,1017.05
2017-09-24T10:14:39.933Z,1017.05
2017-09-24T10:15:34.005Z,1017.07
2017-09-24T10:16:35.014Z,1017.08
2017-09-24T10:17:35.113Z,1017.06
2017-09-24T10:18:24.143Z,1017.06
2017-09-24T10:19:18.221Z,1017.05
2017-09-24T10:20:12.230Z,1017.05
2017-09-24T10:21:00.285Z,1017.04
2017-09-24T10:21:55.303Z,1017.06
2017-09-24T10:22:50.288Z,1017.03
2017-09-24T10:23:44.485Z,1017.01
2017-09-24T10:24:39.486Z,1017.01
2017-09-24T10:25:28.499Z,1017.03
2017-09-24T10:26:29.631Z,1016.99
2017-09-24T10:27:24.308Z,1016.96
2017-09-24T10:28:18.762Z,1016.94
2017-09-24T10:29:13.787Z,1016.94
2017-09-24T10:30:13.622Z,1016.93
2017-09-24T10:31:02.899Z,1016.96
2017-09-24T10:31:56.986Z,1016.93
2017-09-24T10:32:52.045Z,1016.94
2017-09-24T10:33:40.061Z,1016.93
2017-09-24T10:34:34.139Z,1016.94
2017-09-24T10:35:28.199Z,1016.92
2017-09-24T10:36:17.270Z,1016.93
2017-09-24T10:37:06.298Z,1016.96
2017-09-24T10:38:06.379Z,1016.93
2017-09-24T10:39:01.412Z,1016.90
2017-09-24T10:39:55.416Z,1016.93
2017-09-24T10:40:49.503Z,1016.95
2017-09-24T10:41:43.544Z,1016.93
2017-09-24T10:42:38.595Z,1016.90
2017-09-24T10:43:38.653Z,1016.97
2017-09-24T10:44:26.796Z,1016.93
2017-09-24T10:45:21.723Z,1016.95
2017-09-24T10:46:15.837Z,1016.96
2017-09-24T10:47:10.877Z,1016.92
2017-09-24T10:47:59.997Z,1016.92
2017-09-24T10:48:54.988Z,1016.93
2017-09-24T10:49:49.107Z,1016.93
2017-09-24T10:50:43.143Z,1016.91
2017-09-24T10:51:32.157Z,1016.95
2017-09-24T10:52:20.223Z,1016.88
2017-09-24T10:53:20.292Z,1016.93
2017-09-24T10:54:08.284Z,1016.84
2017-09-24T10:55:03.452Z,1016.89
2017-09-24T10:55:57.485Z,1016.89
2017-09-24T10:56:51.483Z,1016.90
2017-09-24T10:57:40.640Z,1016.88
2017-09-24T10:58:34.912Z,1016.91
2017-09-24T10:59:29.746Z,1016.91
2017-09-24T11:00:18.861Z,1016.88
2017-09-24T11:01:18.838Z,1016.89
2017-09-24T11:02:18.917Z,1016.91
2017-09-24T11:03:13.993Z,1016.94
2017-09-24T11:04:14.044Z,1016.95
2017-09-24T11:05:08.157Z,1016.87
2017-09-24T11:05:57.231Z,1016.89
2017-09-24T11:06:52.285Z,1016.92
2017-09-24T11:07:46.274Z,1016.95
2017-09-24T11:08:35.597Z,1016.94
2017-09-24T11:09:24.457Z,1016.91
2017-09-24T11:10:18.502Z,1016.88
2017-09-24T11:11:13.569Z,1016.91
2017-09-24T11:12:08.643Z,1016.88
2017-09-24T11:13:02.670Z,1016.86
2017-09-24T11:13:51.674Z,1016.88
2017-09-24T11:14:46.762Z,1016.89
2017-09-24T11:15:47.821Z,1016.88
2017-09-24T11:16:43.052Z,1016.87
2017-09-24T11:17:31.949Z,1016.91
2017-09-24T11:18:26.031Z,1016.80
2017-09-24T11:19:21.065Z,1016.78
2017-09-24T11:20:10.078Z,1016.89
2017-09-24T11:21:04.188Z,1016.91
2017-09-24T11:21:59.258Z,1016.90
2017-09-24T11:22:53.286Z,1016.90